This is the latest recevied weather packets stored in our database for station/object N5ZP. If no packets are shown the sender has not sent any weather packets the latest 10 day(s).
| Time | Temp. | Humidity | Pressure | Rain* | Wind** | Luminosity | Snow |
|---|---|---|---|---|---|---|---|
| 1777578032 | 16.11° C | 85% | 1011.6 hPa | 0 mm | - | 57 W/m² | - |
| 1777577726 | 16.11° C | 86% | 1011.2 hPa | 0 mm | - | 66 W/m² | - |
| 1777577423 | 16.11° C | 86% | 1011.2 hPa | 0 mm | - | 59 W/m² | - |
| 1777577120 | 16.11° C | 86% | 1010.9 hPa | 0 mm | - | 66 W/m² | - |
| 1777576816 | 16.11° C | 87% | 1010.8 hPa | 0 mm | - | 68 W/m² | - |
| 1777576516 | 15.56° C | 87% | 1011.1 hPa | 0 mm | - | 60 W/m² | - |
| 1777576212 | 15.56° C | 88% | 1010.6 hPa | 0 mm | - | 63 W/m² | - |
| 1777575908 | 15.56° C | 88% | 1010.6 hPa | 0 mm | - | 55 W/m² | - |
| 1777575605 | 15.56° C | 88% | 1010.6 hPa | 0 mm | - | 59 W/m² | - |
| 1777575301 | 15.56° C | 89% | 1010.5 hPa | 0 mm | - | 55 W/m² | - |
| 1777574996 | 16.11° C | 90% | 1011.1 hPa | 0 mm | - | 52 W/m² | - |
| 1777574693 | 16.11° C | 90% | 1011.1 hPa | 0 mm | - | 52 W/m² | - |
| 1777574390 | 15.56° C | 90% | 1011.2 hPa | 0 mm | - | 53 W/m² | - |
| 1777573834 | 15.56° C | 91% | 1010.8 hPa | 0 mm | - | 54 W/m² | - |
| 1777573529 | 15.56° C | 91% | 1010.8 hPa | 0 mm | - | 54 W/m² | - |
| 1777573226 | 16.11° C | 92% | 1011.3 hPa | 0 mm | - | 46 W/m² | - |
| 1777572922 | 15.56° C | 92% | 1010.7 hPa | 0 mm | - | 62 W/m² | - |
| 1777572618 | 15.56° C | 92% | 1010.7 hPa | 0 mm | - | 62 W/m² | - |
| 1777572318 | 15.56° C | 92% | 1010.8 hPa | 0 mm | - | 79 W/m² | - |
| 1777572015 | 15.56° C | 92% | 1010.8 hPa | 0 mm | - | 68 W/m² | - |
| 1777571714 | 15.56° C | 92% | 1011.5 hPa | 0 mm | - | 59 W/m² | - |
| 1777571413 | 15.56° C | 92% | 1011.4 hPa | 0 mm | - | 62 W/m² | - |
| 1777571109 | 15.56° C | 92% | 1011.3 hPa | 0 mm | - | 74 W/m² | - |
| 1777570804 | 15.56° C | 92% | 1011.4 hPa | 0 mm | - | 71 W/m² | - |
| 1777570500 | 15.56° C | 93% | 1010.9 hPa | 0 mm | - | 95 W/m² | - |
* Rain latest hour (hover to see other rain measurements)
** Current wind speed in m/s (hover to see current wind gust speed)